Terminal Aerodrome Forecast
Issued by NWS Boston, MA

Home | Current Version | Previous Version | Text Only | Print | Product List | Glossary On
Versions: 1 2 3 4 5 6 7 8 9 10 11 12 13 14 15 16 17 18 19 20 21 22 23
000
FTUS41 KBOX 251132
TAFBOS
TAF
KBOS 251132Z 2512/2618 17006KT 5SM BR SCT015 OVC040
     FM251300 17006KT P6SM BKN040
     FM260300 19009KT 2SM -RA BR OVC015
     FM260500 27012G24KT 5SM -SHRA BKN035
     FM260700 29014G27KT P6SM BKN120
     FM261100 28012G30KT P6SM FEW110=

USA.gov is the U.S. government's official web portal to all federal, state and local government web resources and services.